Weather History for Chipley, FL

Change the Weather History Date:

Wednesday, June 26, 2013

  Actual Average (KMAI) Record (KMAI)
Temperature  
Mean Temperature 86 °F 81 °F  
Max Temperature 91 °F 92 °F 98 °F (2011)
Min Temperature 80 °F 71 °F 66 °F (2001)
Degree Days  
Heating Degree Days 0    
Month to date heating degree days  
Since 1 June heating degree days  
Since 1 July heating degree days  
Cooling Degree Days 20    
Month to date cooling degree days  
Year to date cooling degree days  
Since 1 June cooling degree days  
Growing Degree Days 36 (Base 50)    
Moisture  
Dew Point 73 °F    
Average Humidity 67    
Maximum Humidity 79    
Minimum Humidity 55    
Precipitation  
Precipitation 0.00 in 0.19 in 0.80 in (2004)
Month to date precipitation 4.85  
Year to date precipitation 27.07  
Sea Level Pressure  
Sea Level Pressure 30.03 in    
Wind  
Wind Speed 5 mph (SSE)    
Max Wind Speed 10 mph    
Max Gust Speed 20 mph    
Visibility 10 miles    
Events      
T = Trace of Precipitation, MM = Missing Value Source: NWS Daily Summary

Daily Weather History Graph

Daily Weather History Graph

Search for Another Location

Airport:

Trip Planner

Search our weather history database for the weather conditions in past years. The results will help you decide how hot, cold, wet, or windy it might be!

Date:

Astronomy

Jun. 26, 2013 Rise Set
Actual Time 5:41 AM CDT 7:49 PM CDT
Civil Twilight 5:13 AM CDT 8:17 PM CDT
Nautical Twilight 4:39 AM CDT 8:50 PM CDT
Astronomical Twilight 4:03 AM CDT 9:27 PM CDT
Moon 10:30 PM CDT (6/26) 9:16 AM CDT (6/26)
Length of Visible Light 15h 03m
Length of Day
14h 07m
Waning Gibbous, 85% of the Moon is Illuminated
Jun 26
Waning Gibbous
Jun 29
Last Quarter
Jul 8
New
Jul 15
First Quarter
Jul 22
Full

Hourly Weather History & Observations

Time (CDT) Temp. Heat Index Dew Point Humidity Pressure Visibility Wind Dir Wind Speed Gust Speed Precip Events Conditions
12:15 AM 82.4 °F 88.2 °F 73.4 °F 74% 30.04 in 10.0 mi South 4.6 mph - N/A   Clear
12:35 AM 82.4 °F 88.2 °F 73.4 °F 74% 30.03 in 10.0 mi South 3.5 mph - N/A   Clear
12:55 AM 82.4 °F 88.2 °F 73.4 °F 74% 30.03 in 10.0 mi South 4.6 mph - N/A   Clear
1:15 AM 82.4 °F 88.2 °F 73.4 °F 74% 30.03 in 10.0 mi South 5.8 mph - N/A   Clear
1:35 AM 82.4 °F 88.2 °F 73.4 °F 74% 30.03 in 10.0 mi SSE 4.6 mph - N/A   Clear
1:55 AM 82.4 °F 88.2 °F 73.4 °F 74% 30.02 in 10.0 mi South 5.8 mph - N/A   Clear
2:15 AM 82.4 °F 88.2 °F 73.4 °F 74% 30.01 in 10.0 mi South 4.6 mph - N/A   Clear
2:35 AM 82.4 °F 88.2 °F 73.4 °F 74% 30.01 in 10.0 mi South 5.8 mph - N/A   Partly Cloudy
2:55 AM 82.4 °F 88.2 °F 73.4 °F 74% 30.01 in 10.0 mi South 4.6 mph - N/A   Partly Cloudy
3:15 AM 80.6 °F 85.4 °F 73.4 °F 79% 30.01 in 10.0 mi SSE 4.6 mph - N/A   Clear
3:35 AM 80.6 °F 85.4 °F 73.4 °F 79% 30.01 in 10.0 mi South 4.6 mph - N/A   Clear
3:55 AM 80.6 °F 85.4 °F 73.4 °F 79% 30.01 in 10.0 mi South 3.5 mph - N/A   Clear
4:15 AM 80.6 °F 85.4 °F 73.4 °F 79% 30.01 in 10.0 mi South 3.5 mph - N/A   Clear
4:35 AM 80.6 °F 85.4 °F 73.4 °F 79% 30.02 in 10.0 mi South 3.5 mph - N/A   Clear
4:55 AM 80.6 °F 85.4 °F 73.4 °F 79% 30.02 in 10.0 mi Calm Calm - N/A   Clear
5:15 AM 80.6 °F 85.4 °F 73.4 °F 79% 30.02 in 10.0 mi South 4.6 mph - N/A   Clear
5:35 AM 80.6 °F 85.4 °F 73.4 °F 79% 30.03 in 10.0 mi SSE 3.5 mph - N/A   Clear
5:55 AM 80.6 °F 85.4 °F 73.4 °F 79% 30.03 in 10.0 mi South 5.8 mph - N/A   Clear
6:15 AM 80.6 °F 85.4 °F 73.4 °F 79% 30.03 in 10.0 mi SSE 3.5 mph - N/A   Clear
6:35 AM 80.6 °F 85.4 °F 73.4 °F 79% 30.04 in 10.0 mi South 3.5 mph - N/A   Partly Cloudy
6:55 AM 82.4 °F 88.2 °F 73.4 °F 74% 30.04 in 10.0 mi South 3.5 mph - N/A   Clear
7:15 AM 82.4 °F 88.2 °F 73.4 °F 74% 30.04 in 10.0 mi South 4.6 mph - N/A   Clear
7:35 AM 82.4 °F 88.2 °F 73.4 °F 74% 30.05 in 10.0 mi Calm Calm - N/A   Partly Cloudy
7:55 AM 84.2 °F 90.9 °F 73.4 °F 70% 30.06 in 10.0 mi South 4.6 mph - N/A   Clear
8:15 AM 86.0 °F 93.4 °F 73.4 °F 66% 30.06 in 10.0 mi South 4.6 mph - N/A   Partly Cloudy
8:35 AM 87.8 °F 95.6 °F 73.4 °F 62% 30.06 in 10.0 mi South 3.5 mph - N/A   Mostly Cloudy
8:55 AM 86.0 °F 93.4 °F 73.4 °F 66% 30.07 in 10.0 mi Calm Calm - N/A   Overcast
9:15 AM 84.2 °F 90.9 °F 73.4 °F 70% 30.07 in 10.0 mi Calm Calm - N/A   Partly Cloudy
9:35 AM 87.8 °F 95.6 °F 73.4 °F 62% 30.07 in 10.0 mi Calm Calm - N/A   Partly Cloudy
9:55 AM 87.8 °F 95.6 °F 73.4 °F 62% 30.07 in 10.0 mi NNE 5.8 mph - N/A   Mostly Cloudy
10:15 AM 87.8 °F 95.6 °F 73.4 °F 62% 30.07 in 10.0 mi NE 3.5 mph - N/A   Mostly Cloudy
10:35 AM 87.8 °F 95.6 °F 73.4 °F 62% 30.07 in 10.0 mi NW 8.1 mph - N/A   Mostly Cloudy
10:55 AM 86.0 °F 93.4 °F 73.4 °F 66% 30.07 in 10.0 mi North 5.8 mph - N/A   Partly Cloudy
11:15 AM 87.8 °F 95.6 °F 73.4 °F 62% 30.07 in 10.0 mi NNE 10.4 mph - N/A   Partly Cloudy
11:35 AM 87.8 °F 95.6 °F 73.4 °F 62% 30.07 in 10.0 mi NNW 4.6 mph - N/A   Mostly Cloudy
11:55 AM 87.8 °F 95.6 °F 73.4 °F 62% 30.07 in 10.0 mi NNE 3.5 mph - N/A   Mostly Cloudy
12:15 PM 87.8 °F 95.6 °F 73.4 °F 62% 30.07 in 10.0 mi NE 4.6 mph - N/A   Scattered Clouds
12:35 PM 87.8 °F 95.6 °F 73.4 °F 62% 30.06 in 10.0 mi Calm Calm - N/A   Mostly Cloudy
12:55 PM 89.6 °F 98.2 °F 73.4 °F 59% 30.06 in 10.0 mi Calm Calm - N/A   Mostly Cloudy
1:15 PM 89.6 °F 98.2 °F 73.4 °F 59% 30.06 in 10.0 mi North 5.8 mph - N/A   Mostly Cloudy
1:35 PM 87.8 °F 95.6 °F 73.4 °F 62% 30.04 in 10.0 mi NE 4.6 mph - N/A   Mostly Cloudy
1:55 PM 89.6 °F 98.2 °F 73.4 °F 59% 30.04 in 10.0 mi NE 3.5 mph - N/A   Mostly Cloudy
2:15 PM 87.8 °F 95.6 °F 73.4 °F 62% 30.04 in 10.0 mi ENE 3.5 mph - N/A   Overcast
2:35 PM 91.4 °F 100.1 °F 73.4 °F 55% 30.03 in 10.0 mi NNE 3.5 mph - N/A   Scattered Clouds
2:55 PM 91.4 °F 100.1 °F 73.4 °F 55% 30.03 in 10.0 mi ENE 6.9 mph - N/A   Scattered Clouds
3:15 PM 89.6 °F 98.2 °F 73.4 °F 59% 30.03 in 9.0 mi SSE 10.4 mph 19.6 mph N/A   Mostly Cloudy
3:35 PM 86.0 °F 90.4 °F 69.8 °F 58% 30.03 in 10.0 mi SSE 8.1 mph 16.1 mph N/A   Overcast
3:55 PM 86.0 °F 91.8 °F 71.6 °F 62% 30.03 in 10.0 mi SSW 6.9 mph - N/A   Mostly Cloudy
4:15 PM 84.2 °F 90.9 °F 73.4 °F 70% 30.02 in 10.0 mi South 8.1 mph - N/A   Overcast
4:35 PM 86.0 °F 93.4 °F 73.4 °F 66% 30.02 in 10.0 mi South 8.1 mph - N/A   Overcast
4:55 PM 89.6 °F 98.2 °F 73.4 °F 59% 30.01 in 10.0 mi South 9.2 mph - N/A   Overcast
5:15 PM 89.6 °F 98.2 °F 73.4 °F 59% 30.00 in 10.0 mi South 8.1 mph - N/A   Mostly Cloudy
5:35 PM 89.6 °F 99.8 °F 75.2 °F 62% 30.00 in 10.0 mi South 10.4 mph - N/A   Scattered Clouds
5:55 PM 89.6 °F 98.2 °F 73.4 °F 59% 30.00 in 10.0 mi South 8.1 mph - N/A   Clear
6:15 PM 89.6 °F 98.2 °F 73.4 °F 59% 29.99 in 10.0 mi SSW 6.9 mph - N/A   Clear
6:35 PM 89.6 °F 99.8 °F 75.2 °F 62% 29.99 in 10.0 mi SSW 6.9 mph - N/A   Clear
6:55 PM 87.8 °F 97.6 °F 75.2 °F 66% 29.99 in 10.0 mi South 10.4 mph - N/A   Clear
7:15 PM 87.8 °F 97.6 °F 75.2 °F 66% 29.98 in 10.0 mi South 6.9 mph - N/A   Scattered Clouds
7:35 PM 87.8 °F 97.6 °F 75.2 °F 66% 29.98 in 10.0 mi South 6.9 mph - N/A   Partly Cloudy
7:55 PM 87.8 °F 97.6 °F 75.2 °F 66% 29.98 in 10.0 mi South 4.6 mph - N/A   Clear
8:15 PM 87.8 °F 97.6 °F 75.2 °F 66% 29.98 in 10.0 mi South 6.9 mph - N/A   Clear
8:35 PM 87.8 °F 95.6 °F 73.4 °F 62% 29.98 in 10.0 mi South 8.1 mph - N/A   Clear
8:55 PM 87.8 °F 95.6 °F 73.4 °F 62% 29.98 in 10.0 mi South 6.9 mph - N/A   Clear
9:15 PM 86.0 °F 93.4 °F 73.4 °F 66% 29.98 in 10.0 mi South 9.2 mph - N/A   Clear
9:35 PM 86.0 °F 93.4 °F 73.4 °F 66% 29.99 in 10.0 mi South 6.9 mph - N/A   Clear
9:55 PM 86.0 °F 91.8 °F 71.6 °F 62% 30.00 in 10.0 mi South 5.8 mph - N/A   Clear
10:15 PM 86.0 °F 91.8 °F 71.6 °F 62% 30.01 in 10.0 mi South 5.8 mph - N/A   Clear
10:35 PM 86.0 °F 91.8 °F 71.6 °F 62% 30.01 in 10.0 mi South 5.8 mph - N/A   Clear
10:55 PM 84.2 °F 90.9 °F 73.4 °F 70% 30.01 in 10.0 mi South 6.9 mph - N/A   Clear
11:15 PM 84.2 °F 90.9 °F 73.4 °F 70% 30.02 in 10.0 mi South 5.8 mph - N/A   Clear
11:35 PM 84.2 °F 90.9 °F 73.4 °F 70% 30.03 in 10.0 mi South 6.9 mph - N/A   Clear
11:55 PM 84.2 °F 90.9 °F 73.4 °F 70% 30.03 in 10.0 mi South 5.8 mph - N/A   Clear